• Join FlightAware (Why Join?)
  • Login
  • US Flag 
04:03AM EDT


 

Airport Tracker/Info


-or-


 

Live Flight TrackerFlight Track Log ✈ N924AK ✈ 26-Apr-2013 ✈ KBTV - KPDK

Flight Track Log - Related Links

Times and Time Zones

All times are in EDT time to prevent confusion due to time zone crossing. See the N924AK flight status page for this flight to view local times or setup timezone preferences in your user account.

Time Position Orientation Groundspeed Altitude Reporting Facility
EDT Latitude Longitude Course Direction KTS MPH feet Rate Location/Type
10:06AM 44.4892 -73.3364 224° Southwest 216 249 9,200  Level Boston Center
10:07AM 44.4364 -73.4025 222° Southwest 228 262 10,100 660 Climbing Boston Center
10:08AM 44.3733 -73.4828 222° Southwest 291 335 10,600 1,680 Climbing Boston Center
10:09AM 44.1237 -73.6353 226° Southwest  Level FlightAware Approximate
10:09AM 44.2975 -73.5714 220° Southwest 325 374 13,500  Level Boston Center
10:10AM 44.0551 -73.7324 224° Southwest  Level FlightAware Approximate
10:10AM 44.2136 -73.6131 200° South 325 374 15,900  Level Boston Center
10:11AM 43.9852 -73.8274 224° Southwest  Level FlightAware Approximate
10:11AM 44.1258 -73.6519 198° South 330 380 17,900  Level Boston Center
10:12AM 44.0314 -73.6961 199° South 352 405 19,400 1,680 Climbing Boston Center
10:13AM 43.9353 -73.7375 197° South 359 413 21,300 1,860 Climbing Boston Center
10:14AM 43.8306 -73.7811 197° South 380 437 23,200 1,680 Climbing Boston Center
10:15AM 43.7319 -73.8250 198° South 385 443 25,100 1,260 Climbing Boston Center
10:16AM 43.6147 -73.8767 198° South 391 450 26,000 420 Climbing Boston Center
10:17AM 43.4972 -73.9283 198° South 415 478 26,000  Level Boston Center
10:18AM 43.3753 -74.0197 209° Southwest 438 504 26,000  Level Boston Center
10:19AM 43.2903 -74.1372 225° Southwest 444 511 26,000 540 Level Boston Center
10:20AM 43.2050 -74.2544 225° Southwest 439 505 27,100 1,500 Climbing Boston Center
10:21AM 43.1239 -74.3717 227° Southwest 433 498 29,000 1,860 Climbing Boston Center
10:22AM 43.0450 -74.4772 224° Southwest 421 484 30,900 1,680 Climbing Boston Center
10:23AM 42.9700 -74.5853 227° Southwest 407 468 32,400 1,200 Climbing Boston Center
10:24AM 42.8886 -74.6931 224° Southwest 402 463 33,400 780 Climbing Boston Center
10:25AM 42.8242 -74.7869 227° Southwest 402 463 34,000 300 Climbing Boston Center
10:26AM 42.7233 -74.9217 224° Southwest 414 476 34,000  Level Boston Center
10:27AM 42.6375 -75.0339 224° Southwest 422 486 34,000  Level Boston Center
10:28AM 42.5731 -75.1242 226° Southwest 422 486 34,000 960 Level Boston Center
10:31AM 42.3353 -75.4411 225° Southwest 416 479 37,700 1,020 Climbing New York Center
10:32AM 42.2583 -75.5422 224° Southwest 405 466 38,000 120 Climbing New York Center
10:33AM 42.1747 -75.6564 225° Southwest 413 475 38,000  Level New York Center
10:34AM 42.0911 -75.7647 224° Southwest 418 481 38,000  Level New York Center
10:35AM 41.9964 -75.8889 224° Southwest 423 487 38,000  Level New York Center
10:36AM 41.9103 -76.0019 224° Southwest 434 499 38,000  Level New York Center
10:37AM 41.8239 -76.1150 224° Southwest 434 499 38,000  Level New York Center
10:38AM 41.7375 -76.2275 224° Southwest 434 499 38,000  Level New York Center
10:39AM 41.6556 -76.3347 224° Southwest 434 499 38,000  Level New York Center
10:40AM 41.5714 -76.4442 224° Southwest 429 494 38,000  Level New York Center
10:41AM 41.4847 -76.5531 223° Southwest 429 494 38,000  Level New York Center
10:42AM 41.3981 -76.6647 224° Southwest 429 494 38,100 540 Climbing New York Center
10:43AM 41.3156 -76.7706 224° Southwest 429 494 39,100 840 Climbing New York Center
10:44AM 41.2333 -76.8711 223° Southwest 423 487 39,900 420 Climbing New York Center
10:45AM 41.1511 -76.9739 223° Southwest 418 481 40,000  Climbing New York Center
10:46AM 41.0661 -77.0844 224° Southwest 418 481 40,000  Level New York Center
10:47AM 40.9789 -77.1919 223° Southwest 423 487 40,000  Level New York Center
10:48AM 40.8917 -77.3017 224° Southwest 423 487 40,000  Level New York Center
10:49AM 40.8114 -77.3983 222° Southwest 428 493 40,000  Level New York Center
10:50AM 40.7261 -77.5050 223° Southwest 428 493 40,000  Level New York Center
10:51AM 40.6386 -77.6114 223° Southwest 428 493 40,000  Level New York Center
10:53AM 40.4533 -77.8436 224° Southwest 418 481 40,000  Level Cleveland Center
10:54AM 40.3661 -77.9453 222° Southwest 418 481 40,000  Level Cleveland Center
10:55AM 40.2850 -78.0464 224° Southwest 413 475 40,000  Level Cleveland Center
10:56AM 40.2017 -78.1503 224° Southwest 413 475 40,000  Level Cleveland Center
10:57AM 40.1164 -78.2511 222° Southwest 413 475 40,000  Level Cleveland Center
10:58AM 40.0350 -78.3514 223° Southwest 413 475 40,000  Level Cleveland Center
10:59AM 39.9206 -78.4942 224° Southwest 371 427 40,000  Level Washington Center
11:00AM 39.8306 -78.5906 219° Southwest 390 449 40,000  Level Washington Center
11:01AM 39.7489 -78.6925 224° Southwest 407 468 40,000  Level Washington Center
11:02AM 39.6650 -78.7939 223° Southwest 414 476 40,000  Level Washington Center
11:03AM 39.5789 -78.8953 222° Southwest 414 476 40,000  Level Washington Center
11:04AM 39.4928 -78.9936 221° Southwest 414 476 40,000  Level Washington Center
11:05AM 39.4064 -79.0969 223° Southwest 414 476 40,000  Level Washington Center
11:06AM 39.3200 -79.1972 222° Southwest 414 476 40,000  Level Washington Center
11:07AM 39.2336 -79.3003 223° Southwest 414 476 40,000  Level Washington Center
11:08AM 39.1469 -79.4031 223° Southwest 414 476 40,000  Level Washington Center
11:09AM 39.0606 -79.5000 221° Southwest 414 476 40,000  Level Washington Center
11:10AM 38.9711 -79.6153 225° Southwest 437 503 40,000  Level Washington Center
11:11AM 38.8844 -79.7119 221° Southwest 437 503 40,000  Level Washington Center
11:12AM 38.7956 -79.8136 222° Southwest 430 495 40,000  Level Washington Center
11:13AM 38.7064 -79.9122 221° Southwest 430 495 40,000  Level Washington Center
11:14AM 38.6086 -80.0233 222° Southwest 430 495 40,000  Level Washington Center
11:15AM 38.5194 -80.1242 222° Southwest 430 495 40,000  Level Washington Center
11:16AM 38.4300 -80.2247 221° Southwest 430 495 40,000  Level Washington Center
11:18AM 38.2611 -80.4081 220° Southwest 425 489 40,000  Level Indianapolis Center
11:19AM 38.1725 -80.5058 221° Southwest 421 484 40,000  Level Indianapolis Center
11:20AM 38.0842 -80.6044 221° Southwest 420 483 40,000  Level Indianapolis Center
11:21AM 37.9978 -80.7014 222° Southwest 415 478 40,000  Level Indianapolis Center
11:23AM 37.9083 -80.7994 221° Southwest 421 484 40,000  Level Indianapolis Center
11:24AM 37.8022 -80.9164 221° Southwest 419 482 40,000  Level Indianapolis Center
11:25AM 37.7161 -81.0100 221° Southwest 419 482 40,000  Level Indianapolis Center
11:26AM 37.6314 -81.1047 222° Southwest 419 482 40,000  Level Indianapolis Center
11:27AM 37.5278 -81.2169 221° Southwest 420 483 40,000  Level Indianapolis Center
11:28AM 37.4403 -81.3106 220° Southwest 424 488 40,000  Level Indianapolis Center
11:29AM 37.3525 -81.4061 221° Southwest 429 494 40,000  Level Indianapolis Center
11:30AM 37.2569 -81.5097 221° Southwest 426 490 40,000  Level Indianapolis Center
11:31AM 37.1642 -81.6081 220° Southwest 433 498 40,000  Level Indianapolis Center
11:32AM 37.0667 -81.6986 217° Southwest 435 501 40,000  Level Indianapolis Center
11:33AM 36.9519 -81.8036 216° Southwest 435 501 40,000  Level Indianapolis Center
11:34AM 36.8553 -81.8919 216° Southwest 430 495 40,000  Level Indianapolis Center
11:34AM 36.8219 -81.9203 214° Southwest 442 509 40,000  Level Atlanta Center
11:35AM 36.7275 -82.0108 218° Southwest 442 509 40,000  Level Atlanta Center
11:36AM 36.6311 -82.0961 215° Southwest 442 509 40,000 -540 Level Atlanta Center
11:37AM 36.5344 -82.1836 216° Southwest 437 503 39,000 -960 Descending Atlanta Center
11:38AM 36.4500 -82.2578 215° Southwest 431 496 38,100 -540 Descending Atlanta Center
11:39AM 36.3553 -82.3450 217° Southwest 431 496 38,000 -60 Descending Atlanta Center
11:40AM 36.2583 -82.4294 215° Southwest 431 496 38,000  Level Atlanta Center
11:41AM 36.1636 -82.5161 216° Southwest 431 496 38,000  Level Atlanta Center
11:42AM 36.0706 -82.5975 215° Southwest 426 490 38,000 -240 Level Atlanta Center
11:43AM 35.9756 -82.6839 216° Southwest 426 490 37,600 -960 Descending Atlanta Center
11:44AM 35.8786 -82.7675 215° Southwest 431 496 36,100 -1,320 Descending Atlanta Center
11:45AM 35.7814 -82.8561 216° Southwest 431 496 35,000 -600 Descending Atlanta Center
11:46AM 35.6842 -82.9419 216° Southwest 431 496 35,000 -240 Level Atlanta Center
11:47AM 35.5828 -83.0300 215° Southwest 442 509 34,600 -780 Descending Atlanta Center
11:48AM 35.4792 -83.1206 215° Southwest 442 509 33,500 -1,080 Descending Atlanta Center
11:49AM 35.3817 -83.2058 216° Southwest 436 502 32,500 -1,200 Descending Atlanta Center
11:50AM 35.2944 -83.2856 217° Southwest 436 502 31,200 -1,560 Descending Atlanta Center
11:51AM 35.1867 -83.3831 216° Southwest 436 502 29,400 -2,340 Descending Atlanta Center
11:52AM 35.0950 -83.4575 214° Southwest 436 502 26,600 -2,700 Descending Atlanta Center
11:53AM 34.9933 -83.5469 216° Southwest 449 517 24,100 -2,280 Descending Atlanta Center
11:54AM 34.8933 -83.6336 215° Southwest 438 504 22,100 -1,620 Descending Atlanta Center
11:56AM 34.7039 -83.7911 214° Southwest 423 487 19,300 -1,680 Descending Atlanta Center
11:57AM 34.6164 -83.8672 216° Southwest 408 470 17,100 -2,700 Descending Atlanta Center
11:58AM 34.5331 -83.9431 217° Southwest 391 450 13,900 -2,940 Descending Atlanta Center
11:59AM 34.4433 -84.0061 210° Southwest 379 436 11,300 -2,160 Descending Atlanta Center
12:00PM 34.3619 -84.0489 203° Southwest 347 399 9,600 -1,500 Descending Atlanta Center
12:01PM 34.2847 -84.0892 203° Southwest 321 369 8,400 -1,200 Descending Atlanta Center
12:02PM 34.2158 -84.1067 192° South 290 334 7,200 -1,320 Descending Atlanta Center
12:04PM 34.1167 -84.1333 193° South 256 295 5,300 -1,320 Descending Atlanta TRACON
12:05PM 34.0500 -84.1500 192° South 248 285 4,100 -780 Descending Atlanta TRACON
12:06PM 33.9833 -84.1667 192° South 245 282 3,800 -600 Descending Atlanta TRACON
12:07PM 33.9167 -84.2000 203° Southwest 253 291 3,000 -540 Descending Atlanta TRACON
12:08PM 33.8667 -84.2500 220° Southwest 216 249 2,800 -300 Descending Atlanta TRACON
12:09PM 33.8333 -84.2833 220° Southwest 170 196 2,400 -720 Descending Atlanta TRACON
12:10PM 33.8500 -84.3167 301° West 160 184 1,400 -1,020 Descending Atlanta TRACON
12:12PM 33.8667 -84.3000 209° Southwest  Level FlightAware Approximate